createdAt,value
2019-02-27T00:00:30.612Z,1018.64
2019-02-27T00:01:30.617Z,1018.62
2019-02-27T00:02:30.615Z,1018.58
2019-02-27T00:03:30.599Z,1018.57
2019-02-27T00:04:34.859Z,1018.55
2019-02-27T00:05:30.574Z,1018.59
2019-02-27T00:06:30.600Z,1018.58
2019-02-27T00:07:30.555Z,1018.55
2019-02-27T00:08:30.545Z,1018.55
2019-02-27T00:09:32.728Z,1018.55
2019-02-27T00:10:30.528Z,1018.51
2019-02-27T00:11:30.526Z,1018.47
2019-02-27T00:12:30.537Z,1018.46
2019-02-27T00:13:30.504Z,1018.48
2019-02-27T00:14:31.269Z,1018.52
2019-02-27T00:15:30.480Z,1018.50
2019-02-27T00:16:30.488Z,1018.48
2019-02-27T00:17:30.464Z,1018.49
2019-02-27T00:18:30.466Z,1018.48
2019-02-27T00:19:31.382Z,1018.54
2019-02-27T00:20:30.466Z,1018.56
2019-02-27T00:21:30.436Z,1018.54
2019-02-27T00:22:30.418Z,1018.50
2019-02-27T00:23:30.412Z,1018.54
2019-02-27T00:24:30.623Z,1018.48
2019-02-27T00:25:30.417Z,1018.48
2019-02-27T00:26:30.397Z,1018.47
2019-02-27T00:27:30.382Z,1018.45
2019-02-27T00:28:30.398Z,1018.42
2019-02-27T00:29:30.362Z,1018.44
2019-02-27T00:30:30.367Z,1018.43
2019-02-27T00:31:30.346Z,1018.37
2019-02-27T00:32:30.363Z,1018.39
2019-02-27T00:33:30.328Z,1018.38
2019-02-27T00:34:32.839Z,1018.37
2019-02-27T00:35:30.322Z,1018.37
2019-02-27T00:36:30.302Z,1018.34
2019-02-27T00:37:30.310Z,1018.37
2019-02-27T00:38:30.286Z,1018.36
2019-02-27T00:39:31.346Z,1018.35
2019-02-27T00:40:30.268Z,1018.35
2019-02-27T00:41:30.253Z,1018.35
2019-02-27T00:42:33.455Z,1018.32
2019-02-27T00:43:30.283Z,1018.35
2019-02-27T00:44:33.963Z,1018.35
2019-02-27T00:45:30.221Z,1018.32
2019-02-27T00:46:30.207Z,1018.34
2019-02-27T00:47:30.224Z,1018.36
2019-02-27T00:48:30.214Z,1018.36
2019-02-27T00:49:32.339Z,1018.38
2019-02-27T00:50:30.173Z,1018.33
2019-02-27T00:51:30.166Z,1018.37
2019-02-27T00:52:30.192Z,1018.34
2019-02-27T00:53:30.150Z,1018.33
2019-02-27T00:54:38.789Z,1018.30
2019-02-27T00:56:34.637Z,1018.31
2019-02-27T00:57:34.605Z,1018.27
2019-02-27T00:58:34.573Z,1018.26
2019-02-27T00:59:34.561Z,1018.28
2019-02-27T01:00:38.966Z,1018.26
2019-02-27T01:01:34.548Z,1018.29
2019-02-27T01:02:34.563Z,1018.25
2019-02-27T01:03:34.539Z,1018.26
2019-02-27T01:04:35.111Z,1018.23
2019-02-27T01:05:34.510Z,1018.24
2019-02-27T01:06:34.503Z,1018.25
2019-02-27T01:07:34.499Z,1018.27
2019-02-27T01:08:34.498Z,1018.26
2019-02-27T01:09:34.503Z,1018.24
2019-02-27T01:10:34.469Z,1018.24
2019-02-27T01:11:34.459Z,1018.24
2019-02-27T01:12:34.500Z,1018.22
2019-02-27T01:13:34.443Z,1018.28
2019-02-27T01:14:36.891Z,1018.26
2019-02-27T01:15:34.428Z,1018.24
2019-02-27T01:16:34.418Z,1018.21
2019-02-27T01:17:34.423Z,1018.19
2019-02-27T01:18:34.414Z,1018.17
2019-02-27T01:19:38.484Z,1018.19
2019-02-27T01:20:34.409Z,1018.17
2019-02-27T01:21:34.362Z,1018.18
2019-02-27T01:22:34.395Z,1018.17
2019-02-27T01:23:34.367Z,1018.17
2019-02-27T01:24:34.361Z,1018.09
2019-02-27T01:25:34.326Z,1018.11
2019-02-27T01:26:34.342Z,1018.07
2019-02-27T01:27:37.905Z,1018.08
2019-02-27T01:28:34.300Z,1018.08
2019-02-27T01:29:34.287Z,1018.10
2019-02-27T01:30:34.287Z,1018.08
2019-02-27T01:31:34.274Z,1018.06
2019-02-27T01:32:34.261Z,1018.03
2019-02-27T01:33:37.784Z,1018.00
2019-02-27T01:34:34.283Z,1018.00
2019-02-27T01:35:34.272Z,1017.99
2019-02-27T01:36:34.237Z,1017.98
2019-02-27T01:37:34.217Z,1017.97
2019-02-27T01:38:37.631Z,1018.00
2019-02-27T01:39:34.199Z,1017.98
2019-02-27T01:40:34.195Z,1017.97
2019-02-27T01:41:34.199Z,1017.92
2019-02-27T01:42:34.175Z,1017.90
2019-02-27T01:43:34.160Z,1017.89
2019-02-27T01:44:34.150Z,1017.88
2019-02-27T01:45:34.158Z,1017.88
2019-02-27T01:46:34.152Z,1017.83
2019-02-27T01:47:36.056Z,1017.86
2019-02-27T01:48:34.160Z,1017.84
2019-02-27T01:49:34.133Z,1017.80
2019-02-27T01:50:34.097Z,1017.82
2019-02-27T01:51:34.081Z,1017.78
2019-02-27T01:52:34.620Z,1017.78
2019-02-27T01:53:34.067Z,1017.78
2019-02-27T01:54:34.077Z,1017.79
2019-02-27T01:55:34.055Z,1017.77
2019-02-27T01:56:34.046Z,1017.74
2019-02-27T01:57:34.114Z,1017.73
2019-02-27T01:58:34.016Z,1017.72
2019-02-27T01:59:34.018Z,1017.70
2019-02-27T02:00:34.032Z,1017.66
2019-02-27T02:01:34.000Z,1017.65
2019-02-27T02:02:34.874Z,1017.60
2019-02-27T02:03:33.979Z,1017.66
2019-02-27T02:04:33.997Z,1017.62
2019-02-27T02:05:33.954Z,1017.63
2019-02-27T02:06:33.968Z,1017.62
2019-02-27T02:07:33.966Z,1017.59
2019-02-27T02:08:33.937Z,1017.56
2019-02-27T02:09:33.914Z,1017.57
2019-02-27T02:10:33.906Z,1017.53
2019-02-27T02:11:35.013Z,1017.49
2019-02-27T02:12:33.883Z,1017.50
2019-02-27T02:13:33.889Z,1017.48
2019-02-27T02:14:33.872Z,1017.47
2019-02-27T02:15:33.855Z,1017.51
2019-02-27T02:16:34.309Z,1017.48
2019-02-27T02:17:33.847Z,1017.44
2019-02-27T02:18:33.852Z,1017.43
2019-02-27T02:19:33.842Z,1017.42
2019-02-27T02:20:33.834Z,1017.41
2019-02-27T02:21:34.334Z,1017.36
2019-02-27T02:22:33.790Z,1017.38
2019-02-27T02:23:33.805Z,1017.37
2019-02-27T02:24:33.789Z,1017.32
2019-02-27T02:25:33.781Z,1017.32
2019-02-27T02:26:35.019Z,1017.31
2019-02-27T02:27:33.739Z,1017.34
2019-02-27T02:28:33.726Z,1017.35
2019-02-27T02:29:33.724Z,1017.36
2019-02-27T02:30:33.714Z,1017.35
2019-02-27T02:31:33.734Z,1017.33
2019-02-27T02:32:33.698Z,1017.35
2019-02-27T02:33:33.678Z,1017.35
2019-02-27T02:34:39.836Z,1017.34
2019-02-27T02:35:33.679Z,1017.31
2019-02-27T02:36:33.653Z,1017.31
2019-02-27T02:37:36.704Z,1017.26
2019-02-27T02:38:33.652Z,1017.29
2019-02-27T02:39:33.620Z,1017.26
2019-02-27T02:40:33.621Z,1017.27
2019-02-27T02:41:33.632Z,1017.26
2019-02-27T02:42:33.603Z,1017.29
2019-02-27T02:43:39.974Z,1017.26
2019-02-27T02:44:33.589Z,1017.29
2019-02-27T02:45:33.833Z,1017.28
2019-02-27T02:46:33.559Z,1017.26
2019-02-27T02:47:33.561Z,1017.22
2019-02-27T02:48:33.539Z,1017.27
2019-02-27T02:49:33.529Z,1017.27
2019-02-27T02:50:33.516Z,1017.23
2019-02-27T02:51:33.525Z,1017.22
2019-02-27T02:52:40.507Z,1017.18
2019-02-27T02:53:33.520Z,1017.11
2019-02-27T02:54:37.553Z,1017.14
2019-02-27T02:55:33.505Z,1017.06
2019-02-27T03:14:03.836Z,1016.93
2019-02-27T03:15:03.793Z,1016.93
2019-02-27T03:16:04.772Z,1016.93
2019-02-27T03:17:03.763Z,1016.93
2019-02-27T03:18:03.788Z,1016.90
2019-02-27T03:19:06.273Z,1016.92
2019-02-27T03:20:03.762Z,1016.94
2019-02-27T03:21:03.719Z,1016.89
2019-02-27T03:22:04.687Z,1016.91
2019-02-27T03:23:03.684Z,1016.93
2019-02-27T03:24:03.675Z,1016.90
2019-02-27T03:25:07.833Z,1016.93
2019-02-27T03:26:03.652Z,1016.92
2019-02-27T03:27:03.658Z,1016.96
2019-02-27T03:28:04.884Z,1016.93
2019-02-27T03:29:03.621Z,1016.99
2019-02-27T03:30:03.625Z,1016.95
2019-02-27T03:31:03.661Z,1016.94
2019-02-27T03:32:03.590Z,1016.90
2019-02-27T03:33:03.595Z,1016.90
2019-02-27T03:34:08.034Z,1016.89
2019-02-27T03:35:03.558Z,1016.85
2019-02-27T03:36:04.408Z,1016.88
2019-02-27T03:37:03.563Z,1016.85
2019-02-27T03:38:03.526Z,1016.89
2019-02-27T03:39:03.513Z,1016.89
2019-02-27T03:40:03.505Z,1016.94
2019-02-27T03:41:03.496Z,1016.92
2019-02-27T03:42:03.486Z,1016.90
2019-02-27T03:43:07.098Z,1016.89
2019-02-27T03:44:03.461Z,1016.91
2019-02-27T03:45:03.441Z,1016.94
2019-02-27T03:46:06.189Z,1016.93
2019-02-27T03:47:03.418Z,1016.91
2019-02-27T03:48:03.432Z,1016.91
2019-02-27T03:49:04.555Z,1016.89
2019-02-27T03:50:03.399Z,1016.91
2019-02-27T03:51:03.379Z,1016.93
2019-02-27T03:52:03.371Z,1016.95
2019-02-27T03:53:03.351Z,1016.95
2019-02-27T03:54:03.352Z,1016.97
2019-02-27T03:55:03.339Z,1016.92
2019-02-27T03:56:08.717Z,1016.93
2019-02-27T03:57:03.343Z,1016.97
2019-02-27T03:58:03.345Z,1016.94
2019-02-27T03:59:06.287Z,1016.97
2019-02-27T04:00:03.284Z,1016.94
2019-02-27T04:01:03.265Z,1016.94
2019-02-27T04:02:06.121Z,1016.95
2019-02-27T04:03:03.255Z,1016.94
2019-02-27T04:04:03.236Z,1016.95
2019-02-27T04:05:07.155Z,1016.93
2019-02-27T04:06:03.216Z,1016.93
2019-02-27T04:07:03.203Z,1016.92
2019-02-27T04:08:07.276Z,1016.88
2019-02-27T04:09:03.175Z,1016.88
2019-02-27T04:10:03.175Z,1016.87
2019-02-27T04:11:05.854Z,1016.87
2019-02-27T04:12:03.167Z,1016.88
2019-02-27T04:13:03.134Z,1016.84
2019-02-27T04:14:05.181Z,1016.84
2019-02-27T04:15:03.148Z,1016.81
2019-02-27T04:16:03.127Z,1016.83
2019-02-27T04:17:07.086Z,1016.81
2019-02-27T04:18:03.077Z,1016.80
2019-02-27T04:19:04.844Z,1016.81
2019-02-27T04:20:03.069Z,1016.76
2019-02-27T04:21:03.047Z,1016.75
2019-02-27T04:22:03.045Z,1016.80
2019-02-27T04:23:03.060Z,1016.77
2019-02-27T04:24:03.016Z,1016.78
2019-02-27T04:25:03.004Z,1016.77
2019-02-27T04:26:05.797Z,1016.78
2019-02-27T04:27:02.999Z,1016.75
2019-02-27T04:28:02.973Z,1016.77
2019-02-27T04:29:04.456Z,1016.80
2019-02-27T04:30:02.951Z,1016.81
2019-02-27T04:31:02.973Z,1016.78
2019-02-27T04:32:02.939Z,1016.78
2019-02-27T04:33:02.945Z,1016.78
2019-02-27T04:34:02.946Z,1016.81
2019-02-27T04:35:05.955Z,1016.78
2019-02-27T04:36:02.894Z,1016.83
2019-02-27T04:37:02.883Z,1016.79
2019-02-27T04:38:02.887Z,1016.79
2019-02-27T04:39:03.159Z,1016.83
2019-02-27T04:40:02.833Z,1016.85
2019-02-27T04:41:02.837Z,1016.82
2019-02-27T04:42:02.817Z,1016.84
2019-02-27T04:43:02.808Z,1016.85
2019-02-27T04:44:05.317Z,1016.87
2019-02-27T04:45:02.837Z,1016.83
2019-02-27T04:46:02.776Z,1016.81
2019-02-27T04:47:02.776Z,1016.80
2019-02-27T04:48:02.770Z,1016.80
2019-02-27T04:49:04.978Z,1016.79
2019-02-27T04:50:02.768Z,1016.78
2019-02-27T04:51:02.718Z,1016.79
2019-02-27T04:52:02.722Z,1016.77
2019-02-27T04:53:02.720Z,1016.78
2019-02-27T04:54:06.388Z,1016.78
2019-02-27T04:55:02.673Z,1016.78
2019-02-27T04:56:02.658Z,1016.78
2019-02-27T04:57:02.651Z,1016.77
2019-02-27T04:58:02.658Z,1016.79
2019-02-27T04:59:02.639Z,1016.76
2019-02-27T05:00:02.641Z,1016.77
2019-02-27T05:01:02.611Z,1016.77
2019-02-27T05:02:02.627Z,1016.77
2019-02-27T05:03:02.586Z,1016.78
2019-02-27T05:04:02.597Z,1016.79
2019-02-27T05:05:12.289Z,1016.82
2019-02-27T05:07:07.101Z,1016.78
2019-02-27T05:08:07.056Z,1016.76
2019-02-27T05:09:07.019Z,1016.77
2019-02-27T05:10:07.866Z,1016.79
2019-02-27T05:11:07.003Z,1016.76
2019-02-27T05:12:07.003Z,1016.79
2019-02-27T05:13:07.001Z,1016.77
2019-02-27T05:14:07.007Z,1016.78
2019-02-27T05:15:06.956Z,1016.81
2019-02-27T05:16:06.944Z,1016.82
2019-02-27T05:17:06.960Z,1016.79
2019-02-27T05:18:07.000Z,1016.73
2019-02-27T05:19:06.918Z,1016.75
2019-02-27T05:20:11.599Z,1016.74
2019-02-27T05:21:06.931Z,1016.71
2019-02-27T05:22:06.880Z,1016.74
2019-02-27T05:23:06.873Z,1016.70
2019-02-27T05:24:07.777Z,1016.73
2019-02-27T05:25:06.857Z,1016.75
2019-02-27T05:26:06.846Z,1016.75
2019-02-27T05:27:06.851Z,1016.73
2019-02-27T05:28:06.813Z,1016.70
2019-02-27T05:29:06.828Z,1016.72
2019-02-27T05:30:15.441Z,1016.68
2019-02-27T05:32:11.264Z,1016.70
2019-02-27T05:33:11.245Z,1016.71
2019-02-27T05:34:13.596Z,1016.71
2019-02-27T05:35:11.213Z,1016.69
2019-02-27T05:36:11.218Z,1016.71
2019-02-27T05:37:11.187Z,1016.70
2019-02-27T05:38:11.192Z,1016.70
2019-02-27T05:39:11.169Z,1016.69
2019-02-27T05:40:11.163Z,1016.69
2019-02-27T05:41:11.170Z,1016.66
2019-02-27T05:42:13.084Z,1016.68
2019-02-27T05:43:13.931Z,1016.65
2019-02-27T05:44:11.137Z,1016.68
2019-02-27T05:45:11.107Z,1016.65
2019-02-27T05:46:11.110Z,1016.68
2019-02-27T05:47:11.844Z,1016.65
2019-02-27T05:48:11.101Z,1016.67
2019-02-27T05:49:11.071Z,1016.69
2019-02-27T05:50:11.062Z,1016.65
2019-02-27T05:51:11.046Z,1016.63
2019-02-27T05:52:11.810Z,1016.64
2019-02-27T05:53:11.010Z,1016.63
2019-02-27T05:54:10.993Z,1016.59
2019-02-27T05:55:10.988Z,1016.61
2019-02-27T05:56:15.521Z,1016.60
2019-02-27T05:57:10.970Z,1016.62
2019-02-27T05:58:10.957Z,1016.63
2019-02-27T05:59:10.937Z,1016.61
2019-02-27T06:00:10.938Z,1016.60
2019-02-27T06:01:10.953Z,1016.60
2019-02-27T06:02:11.510Z,1016.65
2019-02-27T06:03:10.913Z,1016.60
2019-02-27T06:04:10.905Z,1016.57
2019-02-27T06:05:10.907Z,1016.64
2019-02-27T06:06:11.813Z,1016.58
2019-02-27T06:07:10.883Z,1016.60
2019-02-27T06:08:10.847Z,1016.60
2019-02-27T06:09:10.978Z,1016.59
2019-02-27T06:10:10.937Z,1016.60
2019-02-27T06:11:10.805Z,1016.59
2019-02-27T06:12:10.806Z,1016.58
2019-02-27T06:13:14.029Z,1016.59
2019-02-27T06:14:10.769Z,1016.67
2019-02-27T06:15:10.762Z,1016.67
2019-02-27T06:16:10.761Z,1016.66
2019-02-27T06:17:12.812Z,1016.68
2019-02-27T06:18:10.722Z,1016.67
2019-02-27T06:19:10.729Z,1016.65
2019-02-27T06:20:10.725Z,1016.70
2019-02-27T06:21:13.373Z,1016.66
2019-02-27T06:22:10.683Z,1016.69
2019-02-27T06:23:10.671Z,1016.71
2019-02-27T06:24:12.550Z,1016.70
2019-02-27T06:25:10.653Z,1016.71
2019-02-27T06:26:10.646Z,1016.76
2019-02-27T06:27:10.655Z,1016.75
2019-02-27T06:28:10.644Z,1016.75
2019-02-27T06:29:10.618Z,1016.78
2019-02-27T06:30:10.675Z,1016.75
2019-02-27T06:31:10.611Z,1016.77
2019-02-27T06:32:12.387Z,1016.72
2019-02-27T06:33:11.868Z,1016.71
2019-02-27T06:34:10.555Z,1016.76
2019-02-27T06:35:10.526Z,1016.71
2019-02-27T06:36:10.541Z,1016.73
2019-02-27T06:37:10.580Z,1016.71
2019-02-27T06:38:10.578Z,1016.73
2019-02-27T06:39:10.603Z,1016.73
2019-02-27T06:40:10.498Z,1016.71
2019-02-27T06:41:10.495Z,1016.75
2019-02-27T06:42:10.504Z,1016.77
2019-02-27T06:43:10.466Z,1016.77
2019-02-27T06:44:10.473Z,1016.73
2019-02-27T06:45:12.696Z,1016.74
2019-02-27T06:46:10.449Z,1016.73
2019-02-27T06:47:10.441Z,1016.70
2019-02-27T06:48:10.524Z,1016.71
2019-02-27T06:49:10.427Z,1016.66
2019-02-27T06:50:10.366Z,1016.68
2019-02-27T06:51:10.369Z,1016.67
2019-02-27T06:52:10.449Z,1016.67
2019-02-27T06:53:10.406Z,1016.71
2019-02-27T06:54:10.479Z,1016.73
2019-02-27T06:55:10.367Z,1016.72
2019-02-27T06:56:10.315Z,1016.77
2019-02-27T06:57:10.312Z,1016.77
2019-02-27T06:58:14.470Z,1016.78
2019-02-27T06:59:10.301Z,1016.77
2019-02-27T07:00:10.276Z,1016.78
2019-02-27T07:01:19.424Z,1016.78
2019-02-27T07:03:29.238Z,1016.75
2019-02-27T07:04:15.148Z,1016.74
2019-02-27T07:05:14.723Z,1016.78
2019-02-27T07:06:14.736Z,1016.73
2019-02-27T07:07:14.697Z,1016.78
2019-02-27T07:08:14.663Z,1016.79
2019-02-27T07:09:14.706Z,1016.77
2019-02-27T07:10:19.469Z,1016.78
2019-02-27T07:11:14.663Z,1016.76
2019-02-27T07:12:14.647Z,1016.72
2019-02-27T07:13:14.616Z,1016.70
2019-02-27T07:14:14.622Z,1016.71
2019-02-27T07:15:14.631Z,1016.68
2019-02-27T07:16:14.583Z,1016.70
2019-02-27T07:17:14.607Z,1016.74
2019-02-27T07:18:14.592Z,1016.67
2019-02-27T07:19:15.876Z,1016.69
2019-02-27T07:20:14.557Z,1016.63
2019-02-27T07:21:14.564Z,1016.62
2019-02-27T07:22:14.538Z,1016.66
2019-02-27T07:23:14.542Z,1016.60
2019-02-27T07:24:14.533Z,1016.63
2019-02-27T07:25:14.485Z,1016.61
2019-02-27T07:26:15.801Z,1016.58
2019-02-27T07:27:14.490Z,1016.61
2019-02-27T07:28:14.458Z,1016.60
2019-02-27T07:29:21.265Z,1016.61
2019-02-27T07:30:14.466Z,1016.59
2019-02-27T07:31:17.502Z,1016.57
2019-02-27T07:32:14.409Z,1016.57
2019-02-27T07:33:14.399Z,1016.60
2019-02-27T07:34:14.954Z,1016.58
2019-02-27T07:35:14.477Z,1016.62
2019-02-27T07:36:14.410Z,1016.60
2019-02-27T07:37:14.401Z,1016.63
2019-02-27T07:38:14.399Z,1016.62
2019-02-27T07:39:14.376Z,1016.63
2019-02-27T07:40:14.409Z,1016.64
2019-02-27T07:41:17.550Z,1016.60
2019-02-27T07:42:14.387Z,1016.64
2019-02-27T07:43:14.310Z,1016.61
2019-02-27T07:44:14.308Z,1016.60
2019-02-27T07:45:14.362Z,1016.64
2019-02-27T07:46:14.325Z,1016.63
2019-02-27T07:47:14.294Z,1016.61
2019-02-27T07:48:14.251Z,1016.67
2019-02-27T07:49:14.245Z,1016.71
2019-02-27T07:50:14.214Z,1016.72
2019-02-27T07:51:14.213Z,1016.74
2019-02-27T07:52:14.365Z,1016.76
2019-02-27T07:53:17.427Z,1016.75
2019-02-27T07:54:14.183Z,1016.76
2019-02-27T07:55:21.696Z,1016.72
2019-02-27T07:56:14.153Z,1016.77
2019-02-27T07:57:14.155Z,1016.78
2019-02-27T07:58:14.178Z,1016.75
2019-02-27T07:59:14.152Z,1016.74
2019-02-27T08:00:15.189Z,1016.75
2019-02-27T08:01:14.120Z,1016.76
2019-02-27T08:02:14.111Z,1016.77
2019-02-27T08:03:14.092Z,1016.80
2019-02-27T08:04:14.086Z,1016.80
2019-02-27T08:05:14.064Z,1016.82
2019-02-27T08:06:14.084Z,1016.80
2019-02-27T08:07:14.047Z,1016.81
2019-02-27T08:08:14.034Z,1016.80
2019-02-27T08:09:14.048Z,1016.81
2019-02-27T08:10:14.033Z,1016.81
2019-02-27T08:11:14.240Z,1016.81
2019-02-27T08:12:14.021Z,1016.82
2019-02-27T08:13:14.002Z,1016.80
2019-02-27T08:14:13.979Z,1016.79
2019-02-27T08:15:13.985Z,1016.78
2019-02-27T08:16:13.990Z,1016.79
2019-02-27T08:17:17.678Z,1016.80
2019-02-27T08:18:14.051Z,1016.77
2019-02-27T08:19:13.964Z,1016.74
2019-02-27T08:20:13.926Z,1016.72
2019-02-27T08:21:13.917Z,1016.72
2019-02-27T08:22:13.914Z,1016.71
2019-02-27T08:23:15.523Z,1016.72
2019-02-27T08:24:14.433Z,1016.72
2019-02-27T08:25:13.882Z,1016.73
2019-02-27T08:26:13.899Z,1016.75
2019-02-27T08:27:13.868Z,1016.75
2019-02-27T08:28:13.878Z,1016.78
2019-02-27T08:29:13.866Z,1016.78
2019-02-27T08:30:13.845Z,1016.77
2019-02-27T08:31:13.822Z,1016.77
2019-02-27T08:32:13.856Z,1016.77
2019-02-27T08:33:15.243Z,1016.77
2019-02-27T08:34:13.797Z,1016.71
2019-02-27T08:35:13.815Z,1016.71
2019-02-27T08:36:13.809Z,1016.68
2019-02-27T08:37:13.789Z,1016.68
2019-02-27T08:38:13.763Z,1016.70
2019-02-27T08:39:13.821Z,1016.67
2019-02-27T08:40:13.780Z,1016.70
2019-02-27T08:41:13.752Z,1016.67
2019-02-27T08:42:15.731Z,1016.70
2019-02-27T08:43:13.732Z,1016.65
2019-02-27T08:44:13.769Z,1016.64
2019-02-27T08:45:19.678Z,1016.64
2019-02-27T08:46:13.692Z,1016.59
2019-02-27T08:47:13.690Z,1016.59
2019-02-27T08:48:17.114Z,1016.59
2019-02-27T08:49:13.721Z,1016.59
2019-02-27T08:50:13.933Z,1016.57
2019-02-27T08:51:13.690Z,1016.57
2019-02-27T08:52:16.260Z,1016.52
2019-02-27T08:53:13.645Z,1016.53
2019-02-27T08:54:13.657Z,1016.51
2019-02-27T08:55:19.821Z,1016.53
2019-02-27T08:56:13.630Z,1016.57
2019-02-27T08:57:13.640Z,1016.54
2019-02-27T08:58:13.651Z,1016.51
2019-02-27T08:59:13.616Z,1016.52
2019-02-27T09:00:14.343Z,1016.47
2019-02-27T09:01:13.607Z,1016.48
2019-02-27T09:02:13.589Z,1016.49
2019-02-27T09:03:20.216Z,1016.53
2019-02-27T09:04:13.562Z,1016.54
2019-02-27T09:05:13.549Z,1016.51
2019-02-27T09:06:13.534Z,1016.52
2019-02-27T09:07:13.566Z,1016.52
2019-02-27T09:08:13.577Z,1016.54
2019-02-27T09:09:15.024Z,1016.55
2019-02-27T09:10:13.538Z,1016.49
2019-02-27T09:11:14.745Z,1016.49
2019-02-27T09:12:14.061Z,1016.51
2019-02-27T09:13:13.478Z,1016.46
2019-02-27T09:14:13.474Z,1016.52
2019-02-27T09:15:13.530Z,1016.49
2019-02-27T09:16:13.476Z,1016.43
2019-02-27T09:17:13.459Z,1016.44
2019-02-27T09:18:13.450Z,1016.45
2019-02-27T09:20:13.451Z,1016.43
2019-02-27T09:21:13.425Z,1016.44
2019-02-27T09:22:14.986Z,1016.42
2019-02-27T09:23:13.446Z,1016.41
2019-02-27T09:24:13.427Z,1016.43
2019-02-27T09:25:13.443Z,1016.41
2019-02-27T09:26:13.444Z,1016.36
2019-02-27T09:27:13.374Z,1016.38
2019-02-27T09:28:13.402Z,1016.39
2019-02-27T09:29:16.099Z,1016.37
2019-02-27T09:30:13.377Z,1016.39
2019-02-27T09:31:13.381Z,1016.33
2019-02-27T09:32:13.341Z,1016.33
2019-02-27T09:33:13.346Z,1016.29
2019-02-27T09:34:13.418Z,1016.29
2019-02-27T09:35:13.334Z,1016.23
2019-02-27T09:36:13.349Z,1016.27
2019-02-27T09:37:13.917Z,1016.23
2019-02-27T09:38:13.297Z,1016.29
2019-02-27T09:39:13.283Z,1016.28
2019-02-27T09:40:13.302Z,1016.29
2019-02-27T09:41:13.276Z,1016.29
2019-02-27T09:42:13.271Z,1016.27
2019-02-27T09:43:13.259Z,1016.34
2019-02-27T09:44:13.274Z,1016.28
2019-02-27T09:45:13.251Z,1016.29
2019-02-27T09:46:13.241Z,1016.29
2019-02-27T09:47:13.228Z,1016.28
2019-02-27T09:48:13.247Z,1016.25
2019-02-27T09:49:13.251Z,1016.26
2019-02-27T09:50:14.129Z,1016.24
2019-02-27T09:51:13.210Z,1016.27
2019-02-27T09:52:13.195Z,1016.23
2019-02-27T09:53:13.182Z,1016.23
2019-02-27T09:54:13.929Z,1016.22
2019-02-27T09:55:13.168Z,1016.18
2019-02-27T09:56:13.199Z,1016.16
2019-02-27T09:57:13.180Z,1016.16
2019-02-27T09:58:13.168Z,1016.12
2019-02-27T09:59:13.146Z,1016.13
2019-02-27T10:00:13.170Z,1016.09
2019-02-27T10:01:13.139Z,1016.07
2019-02-27T10:02:13.126Z,1016.05
2019-02-27T10:03:13.146Z,1016.07
2019-02-27T10:04:13.118Z,1016.07
2019-02-27T10:05:13.111Z,1016.01
2019-02-27T10:06:13.111Z,1016.04
2019-02-27T10:07:14.581Z,1016.04
2019-02-27T10:08:13.122Z,1016.01
2019-02-27T10:09:13.087Z,1015.97
2019-02-27T10:10:13.130Z,1015.96
2019-02-27T10:11:13.091Z,1016.02
2019-02-27T10:12:13.116Z,1015.95
2019-02-27T10:13:13.063Z,1015.95
2019-02-27T10:14:14.117Z,1015.91
2019-02-27T10:15:13.041Z,1015.91
2019-02-27T10:16:13.045Z,1015.89
2019-02-27T10:17:13.036Z,1015.86
2019-02-27T10:18:13.064Z,1015.90
2019-02-27T10:19:13.064Z,1015.89
2019-02-27T10:20:13.022Z,1015.86
2019-02-27T10:21:13.025Z,1015.83
2019-02-27T10:22:12.995Z,1015.87
2019-02-27T10:23:12.997Z,1015.80
2019-02-27T10:24:12.982Z,1015.79
2019-02-27T10:25:12.996Z,1015.76
2019-02-27T10:26:13.035Z,1015.72
2019-02-27T10:27:12.987Z,1015.70
2019-02-27T10:28:12.966Z,1015.68
2019-02-27T10:29:13.423Z,1015.67
2019-02-27T10:30:12.953Z,1015.64
2019-02-27T10:31:12.963Z,1015.62
2019-02-27T10:32:12.937Z,1015.58
2019-02-27T10:33:12.962Z,1015.57
2019-02-27T10:34:14.579Z,1015.61
2019-02-27T10:35:12.922Z,1015.53
2019-02-27T10:36:12.908Z,1015.51
2019-02-27T10:37:15.707Z,1015.51
2019-02-27T10:38:12.903Z,1015.48
2019-02-27T10:39:12.904Z,1015.50
2019-02-27T10:40:12.888Z,1015.50
2019-02-27T10:41:12.882Z,1015.50
2019-02-27T10:42:12.879Z,1015.49
2019-02-27T10:43:12.869Z,1015.49
2019-02-27T10:44:12.874Z,1015.48
2019-02-27T10:45:12.891Z,1015.49
2019-02-27T10:46:12.867Z,1015.47
2019-02-27T10:47:12.880Z,1015.45
2019-02-27T10:48:13.396Z,1015.43
2019-02-27T10:49:12.840Z,1015.40
2019-02-27T10:50:12.830Z,1015.38
2019-02-27T10:51:12.848Z,1015.39
2019-02-27T10:52:12.823Z,1015.39
2019-02-27T10:53:12.835Z,1015.34
2019-02-27T10:54:12.817Z,1015.31
2019-02-27T10:55:14.187Z,1015.25
2019-02-27T10:56:12.865Z,1015.26
2019-02-27T10:57:12.792Z,1015.22
2019-02-27T10:58:13.743Z,1015.24
2019-02-27T10:59:12.780Z,1015.26
2019-02-27T11:00:12.777Z,1015.27
2019-02-27T11:01:12.779Z,1015.25
2019-02-27T11:02:13.309Z,1015.22
2019-02-27T11:03:12.784Z,1015.18
2019-02-27T11:04:12.754Z,1015.18
2019-02-27T11:05:15.127Z,1015.18
2019-02-27T11:06:12.774Z,1015.15
2019-02-27T11:07:15.510Z,1015.08
2019-02-27T11:08:12.757Z,1015.07
2019-02-27T11:09:12.733Z,1015.01
2019-02-27T11:10:12.724Z,1015.01
2019-02-27T11:11:13.165Z,1014.96
2019-02-27T11:12:12.744Z,1014.95
2019-02-27T11:13:12.816Z,1014.94
2019-02-27T11:14:12.730Z,1014.93
2019-02-27T11:15:12.708Z,1014.94
2019-02-27T11:16:12.699Z,1014.95
2019-02-27T11:17:12.692Z,1014.98
2019-02-27T11:18:12.683Z,1014.91
2019-02-27T11:19:14.152Z,1014.86
2019-02-27T11:20:12.677Z,1014.87
2019-02-27T11:21:12.669Z,1014.83
2019-02-27T11:22:12.711Z,1014.82
2019-02-27T11:23:12.686Z,1014.76
2019-02-27T11:24:14.486Z,1014.71
2019-02-27T11:25:12.674Z,1014.74
2019-02-27T11:26:12.667Z,1014.72
2019-02-27T11:27:12.654Z,1014.65
2019-02-27T11:28:12.637Z,1014.64
2019-02-27T11:29:12.654Z,1014.64
2019-02-27T11:30:12.665Z,1014.62
2019-02-27T11:31:12.659Z,1014.64
2019-02-27T11:32:12.613Z,1014.63
2019-02-27T11:33:24.727Z,1014.56
2019-02-27T11:34:12.618Z,1014.53
2019-02-27T11:35:12.612Z,1014.51
2019-02-27T11:36:12.614Z,1014.52
2019-02-27T11:37:13.813Z,1014.54
2019-02-27T11:38:12.613Z,1014.51
2019-02-27T11:39:12.621Z,1014.45
2019-02-27T11:40:12.581Z,1014.43
2019-02-27T11:41:14.960Z,1014.45
2019-02-27T11:42:12.572Z,1014.38
2019-02-27T11:43:12.578Z,1014.38
2019-02-27T11:44:14.333Z,1014.35
2019-02-27T11:45:12.563Z,1014.30
2019-02-27T11:46:12.553Z,1014.30
2019-02-27T11:47:12.575Z,1014.34
2019-02-27T11:48:12.581Z,1014.34
2019-02-27T11:49:12.537Z,1014.32
2019-02-27T11:50:14.687Z,1014.32
2019-02-27T11:51:13.932Z,1014.30
2019-02-27T11:52:12.524Z,1014.32
2019-02-27T11:53:12.521Z,1014.28
2019-02-27T11:54:14.516Z,1014.26
2019-02-27T11:55:14.843Z,1014.27
2019-02-27T11:56:12.505Z,1014.26
2019-02-27T11:57:12.508Z,1014.24
2019-02-27T11:58:12.502Z,1014.21
2019-02-27T11:59:12.988Z,1014.19
2019-02-27T12:00:13.677Z,1014.19
2019-02-27T12:01:12.485Z,1014.24
2019-02-27T12:02:12.512Z,1014.19
2019-02-27T12:03:12.493Z,1014.20
2019-02-27T12:04:12.497Z,1014.22
2019-02-27T12:05:12.502Z,1014.20
2019-02-27T12:06:12.485Z,1014.17
2019-02-27T12:07:14.918Z,1014.19
2019-02-27T12:08:12.465Z,1014.17
2019-02-27T12:09:12.492Z,1014.12
2019-02-27T12:10:12.558Z,1014.13
2019-02-27T12:11:14.040Z,1014.14
2019-02-27T12:12:12.477Z,1014.08
2019-02-27T12:13:12.468Z,1014.09
2019-02-27T12:14:12.467Z,1014.09
2019-02-27T12:15:12.462Z,1014.08
2019-02-27T12:16:12.465Z,1014.03
2019-02-27T12:17:12.454Z,1014.01
2019-02-27T12:18:12.424Z,1014.00
2019-02-27T12:19:12.457Z,1013.99
2019-02-27T12:20:12.436Z,1014.03
2019-02-27T12:21:12.442Z,1014.02
2019-02-27T12:22:12.462Z,1014.00
2019-02-27T12:23:12.425Z,1013.95
2019-02-27T12:24:12.413Z,1013.98
2019-02-27T12:25:12.432Z,1013.97
2019-02-27T12:26:12.443Z,1013.96
2019-02-27T12:27:24.437Z,1013.96
2019-02-27T12:28:12.419Z,1013.93